createdAt,value
2022-10-18T00:02:04.306Z,99398.19
2022-10-18T00:04:30.946Z,99397.16
2022-10-18T00:06:57.638Z,99400.53
2022-10-18T00:09:24.802Z,99405.91
2022-10-18T00:11:51.647Z,99403.56
2022-10-18T00:14:18.275Z,99401.41
2022-10-18T00:16:44.723Z,99388.44
2022-10-18T00:19:11.169Z,99390.28
2022-10-18T00:21:37.570Z,99381.56
2022-10-18T00:24:04.777Z,99385.09
2022-10-18T00:26:31.995Z,99382.03
2022-10-18T00:29:01.449Z,99391.47
2022-10-18T00:31:36.706Z,99390.16
2022-10-18T00:34:14.581Z,99381.72
2022-10-18T00:36:42.227Z,99381.56
2022-10-18T00:39:14.028Z,99390.16
2022-10-18T00:41:40.513Z,99388.47
2022-10-18T00:44:26.946Z,99384.75
2022-10-18T00:46:58.493Z,99387.16
2022-10-18T00:49:32.997Z,99389.53
2022-10-18T00:52:03.432Z,99392.72
2022-10-18T00:54:32.059Z,99377.81
2022-10-18T00:56:58.939Z,99381.66
2022-10-18T00:59:26.022Z,99383.53
2022-10-18T01:01:52.547Z,99378.50
2022-10-18T01:04:20.776Z,99379.34
2022-10-18T01:06:53.480Z,99377.00
2022-10-18T01:09:32.657Z,99373.97
2022-10-18T01:12:16.224Z,99369.59
2022-10-18T01:14:51.160Z,99366.75
2022-10-18T01:17:44.519Z,99368.94
2022-10-18T01:20:23.027Z,99368.41
2022-10-18T01:23:13.652Z,99372.97
2022-10-18T01:26:05.445Z,99367.09
2022-10-18T01:28:56.771Z,99367.41
2022-10-18T01:32:00.573Z,99368.59
2022-10-18T01:34:31.512Z,99368.94
2022-10-18T01:37:01.206Z,99371.97
2022-10-18T01:39:32.976Z,99369.78
2022-10-18T01:42:02.788Z,99369.78
2022-10-18T01:44:32.920Z,99365.91
2022-10-18T01:46:59.933Z,99361.53
2022-10-18T01:49:26.727Z,99354.81
2022-10-18T01:51:53.643Z,99354.00
2022-10-18T01:54:30.968Z,99357.88
2022-10-18T01:57:07.122Z,99358.53
2022-10-18T02:00:19.089Z,99356.81
2022-10-18T02:02:53.721Z,99352.97
2022-10-18T02:05:43.787Z,99340.53
2022-10-18T02:08:25.451Z,99336.88
2022-10-18T02:10:57.692Z,99340.38
2022-10-18T02:13:29.604Z,99341.19
2022-10-18T02:16:03.930Z,99345.56
2022-10-18T02:18:41.357Z,99332.47
2022-10-18T02:21:11.439Z,99314.66
2022-10-18T02:23:38.834Z,99329.09
2022-10-18T02:26:06.270Z,99333.53
2022-10-18T02:28:32.741Z,99328.75
2022-10-18T02:31:02.959Z,99304.66
2022-10-18T02:33:46.042Z,99311.22
2022-10-18T02:36:27.388Z,99318.13
2022-10-18T02:39:01.330Z,99335.72
2022-10-18T02:41:28.114Z,99331.53
2022-10-18T02:43:54.572Z,99338.66
2022-10-18T02:46:21.326Z,99334.31
2022-10-18T02:48:48.006Z,99326.31
2022-10-18T02:51:14.504Z,99328.56
2022-10-18T02:53:41.202Z,99348.94
2022-10-18T02:56:08.082Z,99352.06
2022-10-18T02:58:34.577Z,99356.59
2022-10-18T03:01:01.038Z,99357.31
2022-10-18T03:03:27.442Z,99373.31
2022-10-18T03:05:53.803Z,99373.47
2022-10-18T03:08:20.194Z,99379.84
2022-10-18T03:10:47.035Z,99388.72
2022-10-18T03:13:13.812Z,99390.09
2022-10-18T03:15:40.251Z,99396.81
2022-10-18T03:18:06.615Z,99400.31
2022-10-18T03:20:34.236Z,99407.16
2022-10-18T03:23:00.797Z,99421.03
2022-10-18T03:25:27.186Z,99414.50
2022-10-18T03:27:53.758Z,99415.22
2022-10-18T03:30:20.206Z,99394.13
2022-10-18T03:32:46.659Z,99375.16
2022-10-18T03:35:13.119Z,99372.97
2022-10-18T03:37:39.538Z,99385.09
2022-10-18T03:40:06.732Z,99376.19
2022-10-18T03:42:33.251Z,99373.16
2022-10-18T03:45:00.013Z,99361.06
2022-10-18T03:47:26.400Z,99343.22
2022-10-18T03:49:56.254Z,99336.88
2022-10-18T03:52:23.786Z,99344.75
2022-10-18T03:54:50.225Z,99341.56
2022-10-18T03:57:16.691Z,99340.56
2022-10-18T03:59:43.446Z,99337.88
2022-10-18T04:02:10.063Z,99346.59
2022-10-18T04:04:36.470Z,99348.63
2022-10-18T04:07:02.891Z,99353.50
2022-10-18T04:09:29.279Z,99361.06
2022-10-18T04:11:55.812Z,99358.53
2022-10-18T04:14:22.261Z,99362.72
2022-10-18T04:16:48.746Z,99365.75
2022-10-18T04:19:15.318Z,99367.28
2022-10-18T04:21:41.817Z,99357.19
2022-10-18T04:24:08.225Z,99361.72
2022-10-18T04:26:34.623Z,99362.75
2022-10-18T04:29:01.075Z,99349.78
2022-10-18T04:31:27.517Z,99343.59
2022-10-18T04:33:54.145Z,99345.09
2022-10-18T04:36:20.633Z,99339.34
2022-10-18T04:38:47.006Z,99347.25
2022-10-18T04:41:13.414Z,99359.19
2022-10-18T04:43:39.786Z,99362.19
2022-10-18T04:46:06.494Z,99366.81
2022-10-18T04:48:32.865Z,99372.66
2022-10-18T04:50:59.267Z,99376.69
2022-10-18T04:53:25.783Z,99367.53
2022-10-18T04:55:52.241Z,99366.75
2022-10-18T04:58:18.850Z,99371.44
2022-10-18T05:00:47.522Z,99378.72
2022-10-18T05:03:14.743Z,99385.94
2022-10-18T05:06:00.145Z,99380.63
2022-10-18T05:08:27.705Z,99367.56
2022-10-18T05:10:54.385Z,99365.06
2022-10-18T05:13:20.823Z,99366.09
2022-10-18T05:15:47.543Z,99369.13
2022-10-18T05:18:13.980Z,99371.28
2022-10-18T05:20:40.489Z,99365.72
2022-10-18T05:23:10.605Z,99357.66
2022-10-18T05:25:40.913Z,99363.38
2022-10-18T05:28:11.126Z,99359.03
2022-10-18T05:30:47.861Z,99362.56
2022-10-18T05:33:14.387Z,99359.38
2022-10-18T05:35:40.795Z,99365.09
2022-10-18T05:38:07.351Z,99363.41
2022-10-18T05:40:34.106Z,99353.00
2022-10-18T05:43:00.468Z,99349.63
2022-10-18T05:45:26.844Z,99345.06
2022-10-18T05:47:54.114Z,99350.31
2022-10-18T05:50:20.786Z,99347.44
2022-10-18T05:52:47.261Z,99340.88
2022-10-18T05:55:13.773Z,99346.94
2022-10-18T05:57:40.271Z,99342.72
2022-10-18T06:00:07.242Z,99340.03
2022-10-18T06:02:33.703Z,99346.78
2022-10-18T06:05:00.092Z,99351.63
2022-10-18T06:07:26.449Z,99352.00
2022-10-18T06:09:52.841Z,99355.53
2022-10-18T06:12:19.287Z,99359.22
2022-10-18T06:14:45.830Z,99361.91
2022-10-18T06:17:12.302Z,99354.69
2022-10-18T06:19:38.934Z,99357.69
2022-10-18T06:22:05.321Z,99355.19
2022-10-18T06:24:31.772Z,99369.13
2022-10-18T06:26:58.347Z,99358.69
2022-10-18T06:29:24.741Z,99356.53
2022-10-18T06:31:51.107Z,99353.66
2022-10-18T06:34:17.527Z,99370.66
2022-10-18T06:36:43.941Z,99374.81
2022-10-18T06:39:10.593Z,99391.13
2022-10-18T06:41:37.093Z,99385.44
2022-10-18T06:44:13.306Z,99394.81
2022-10-18T06:46:44.558Z,99391.66
2022-10-18T06:49:13.107Z,99394.38
2022-10-18T06:51:43.341Z,99401.88
2022-10-18T06:54:18.724Z,99410.81
2022-10-18T06:56:45.616Z,99410.06
2022-10-18T06:59:12.220Z,99408.84
2022-10-18T07:01:38.816Z,99419.28
2022-10-18T07:04:05.313Z,99422.06
2022-10-18T07:06:31.766Z,99431.59
2022-10-18T07:08:58.283Z,99430.81
2022-10-18T07:11:26.338Z,99432.66
2022-10-18T07:13:54.711Z,99424.47
2022-10-18T07:16:21.529Z,99433.84
2022-10-18T07:18:50.453Z,99433.38
2022-10-18T07:21:22.344Z,99440.59
2022-10-18T07:23:49.806Z,99434.38
2022-10-18T07:26:23.782Z,99430.00
2022-10-18T07:28:59.081Z,99425.16
2022-10-18T07:31:25.948Z,99422.63
2022-10-18T07:33:52.535Z,99427.66
2022-10-18T07:36:20.967Z,99433.56
2022-10-18T07:38:47.746Z,99439.13
2022-10-18T07:41:14.626Z,99438.94
2022-10-18T07:43:46.900Z,99437.13
2022-10-18T07:46:14.453Z,99443.84
2022-10-18T07:48:41.376Z,99445.53
2022-10-18T07:51:08.520Z,99443.84
2022-10-18T07:53:35.128Z,99448.88
2022-10-18T07:56:08.729Z,99447.88
2022-10-18T07:58:36.277Z,99438.63
2022-10-18T08:01:04.705Z,99447.38
2022-10-18T08:03:31.628Z,99458.66
2022-10-18T08:05:58.029Z,99455.81
2022-10-18T08:08:25.344Z,99463.19
2022-10-18T08:10:52.345Z,99463.19
2022-10-18T08:13:19.291Z,99463.31
2022-10-18T08:15:46.159Z,99459.66
2022-10-18T08:18:13.315Z,99467.25
2022-10-18T08:20:44.837Z,99474.31
2022-10-18T08:23:11.753Z,99471.47
2022-10-18T08:25:38.380Z,99475.00
2022-10-18T08:28:05.134Z,99477.69
2022-10-18T08:30:31.695Z,99471.81
2022-10-18T08:32:58.268Z,99484.25
2022-10-18T08:35:24.736Z,99475.81
2022-10-18T08:37:51.305Z,99482.00
2022-10-18T08:40:17.740Z,99480.13
2022-10-18T08:42:52.742Z,99481.06
2022-10-18T08:45:37.518Z,99481.56
2022-10-18T08:48:07.836Z,99489.59
2022-10-18T08:50:37.697Z,99493.81
2022-10-18T08:53:25.201Z,99487.94
2022-10-18T08:56:03.774Z,99493.16
2022-10-18T08:58:32.183Z,99497.72
2022-10-18T09:01:11.775Z,99489.47
2022-10-18T09:03:54.074Z,99498.25
2022-10-18T09:06:45.337Z,99495.56
2022-10-18T09:09:23.643Z,99492.53
2022-10-18T09:12:07.699Z,99505.00
2022-10-18T09:15:21.699Z,99499.75
2022-10-18T09:18:14.041Z,99498.22
2022-10-18T09:20:46.268Z,99502.56
2022-10-18T09:23:22.883Z,99506.25
2022-10-18T09:25:57.455Z,99505.03
2022-10-18T09:28:51.704Z,99512.16
2022-10-18T09:31:41.027Z,99517.09
2022-10-18T09:34:19.354Z,99517.69
2022-10-18T09:36:47.368Z,99512.16
2022-10-18T09:39:18.567Z,99513.69
2022-10-18T09:41:48.494Z,99526.16
2022-10-18T09:44:23.398Z,99515.69
2022-10-18T09:46:58.805Z,99516.84
2022-10-18T09:49:36.625Z,99524.97
2022-10-18T09:52:08.950Z,99517.59
2022-10-18T09:54:43.645Z,99515.13
2022-10-18T09:57:22.002Z,99516.53
2022-10-18T09:59:50.574Z,99514.88
2022-10-18T10:02:22.523Z,99516.66
2022-10-18T10:04:50.217Z,99520.69
2022-10-18T10:07:34.866Z,99525.16
2022-10-18T10:10:16.675Z,99528.94
2022-10-18T10:12:46.105Z,99534.56
2022-10-18T10:15:19.436Z,99535.25
2022-10-18T10:18:17.604Z,99537.56
2022-10-18T10:20:45.581Z,99549.69
2022-10-18T10:23:23.301Z,99542.38
2022-10-18T10:25:55.219Z,99550.69
2022-10-18T10:28:31.102Z,99549.56
2022-10-18T10:31:33.908Z,99549.91
2022-10-18T10:34:03.310Z,99549.84
2022-10-18T10:36:35.006Z,99550.97
2022-10-18T10:39:07.859Z,99551.53
2022-10-18T10:41:34.887Z,99545.75
2022-10-18T10:44:04.087Z,99547.66
2022-10-18T10:46:36.483Z,99552.75
2022-10-18T10:49:35.052Z,99545.72
2022-10-18T10:52:08.802Z,99553.59
2022-10-18T10:54:50.399Z,99553.88
2022-10-18T10:57:24.580Z,99546.91
2022-10-18T10:59:53.945Z,99549.84
2022-10-18T11:02:22.121Z,99556.75
2022-10-18T11:04:50.858Z,99552.41
2022-10-18T11:07:26.335Z,99556.72
2022-10-18T11:10:15.298Z,99562.41
2022-10-18T11:12:46.981Z,99553.34
2022-10-18T11:15:28.627Z,99551.47
2022-10-18T11:18:22.301Z,99548.59
2022-10-18T11:21:11.388Z,99532.22
2022-10-18T11:23:41.077Z,99534.94
2022-10-18T11:26:07.427Z,99540.50
2022-10-18T11:28:36.848Z,99537.91
2022-10-18T11:31:26.737Z,99533.50
2022-10-18T11:34:11.646Z,99546.28
2022-10-18T11:36:54.590Z,99537.31
2022-10-18T11:39:50.086Z,99549.38
2022-10-18T11:42:23.086Z,99549.66
2022-10-18T11:44:52.134Z,99544.28
2022-10-18T11:47:37.033Z,99544.03
2022-10-18T11:50:26.108Z,99543.84
2022-10-18T11:53:04.865Z,99538.50
2022-10-18T11:56:05.271Z,99539.84
2022-10-18T11:58:55.361Z,99545.75
2022-10-18T12:01:36.115Z,99539.88
2022-10-18T12:04:07.186Z,99541.41
2022-10-18T12:06:37.691Z,99550.88
2022-10-18T12:09:13.237Z,99548.00
2022-10-18T12:11:54.865Z,99538.31
2022-10-18T12:14:38.725Z,99528.19
2022-10-18T12:17:40.757Z,99529.91
2022-10-18T12:20:14.761Z,99524.53
2022-10-18T12:23:10.107Z,99531.38
2022-10-18T12:25:40.727Z,99527.56
2022-10-18T12:28:28.485Z,99534.44
2022-10-18T12:31:25.539Z,99529.81
2022-10-18T12:33:58.324Z,99530.41
2022-10-18T12:36:49.746Z,99522.03
2022-10-18T12:39:38.982Z,99520.81
2022-10-18T12:42:25.738Z,99516.03
2022-10-18T12:45:27.715Z,99519.72
2022-10-18T12:47:58.759Z,99517.69
2022-10-18T12:50:37.064Z,99511.34
2022-10-18T12:53:12.400Z,99517.91
2022-10-18T12:55:40.935Z,99517.72
2022-10-18T12:58:13.120Z,99512.91
2022-10-18T13:00:41.538Z,99515.41
2022-10-18T13:03:14.318Z,99511.91
2022-10-18T13:05:55.054Z,99519.25
2022-10-18T13:08:28.124Z,99510.66
2022-10-18T13:11:12.827Z,99518.06
2022-10-18T13:14:06.719Z,99517.81
2022-10-18T13:16:57.330Z,99516.28
2022-10-18T13:19:29.377Z,99523.06
2022-10-18T13:22:33.064Z,99518.06
2022-10-18T13:25:14.925Z,99517.94
2022-10-18T13:27:53.301Z,99508.56
2022-10-18T13:30:32.046Z,99514.03
2022-10-18T13:33:22.731Z,99516.13
2022-10-18T13:36:01.775Z,99512.00
2022-10-18T13:38:42.000Z,99520.25
2022-10-18T13:41:12.472Z,99517.09
2022-10-18T13:43:59.438Z,99518.22
2022-10-18T13:46:34.976Z,99512.56
2022-10-18T13:49:29.344Z,99516.72
2022-10-18T13:52:07.846Z,99518.47
2022-10-18T13:55:31.063Z,99513.84
2022-10-18T13:58:21.551Z,99514.28
2022-10-18T14:01:14.275Z,99512.22
2022-10-18T14:04:01.948Z,99514.88
2022-10-18T14:06:36.237Z,99513.41
2022-10-18T14:09:46.532Z,99504.63
2022-10-18T14:12:28.747Z,99515.97
2022-10-18T14:15:02.515Z,99524.50
2022-10-18T14:17:53.045Z,99532.66
2022-10-18T14:20:29.940Z,99531.78
2022-10-18T14:23:05.020Z,99532.72
2022-10-18T14:25:37.940Z,99520.78
2022-10-18T14:28:12.249Z,99531.22
2022-10-18T14:30:59.619Z,99524.66
2022-10-18T14:33:38.231Z,99523.69
2022-10-18T14:36:22.004Z,99521.09
2022-10-18T14:39:00.267Z,99526.25
2022-10-18T14:41:30.075Z,99534.88
2022-10-18T14:44:11.501Z,99535.94
2022-10-18T14:46:48.051Z,99540.31
2022-10-18T14:49:15.544Z,99540.00
2022-10-18T14:51:45.308Z,99539.78
2022-10-18T14:54:31.565Z,99533.69
2022-10-18T14:56:59.733Z,99540.38
2022-10-18T14:59:29.444Z,99531.59
2022-10-18T15:02:00.018Z,99529.75
2022-10-18T15:04:34.752Z,99529.72
2022-10-18T15:07:07.398Z,99539.13
2022-10-18T15:09:37.126Z,99538.88
2022-10-18T15:12:06.351Z,99540.63
2022-10-18T15:14:34.026Z,99545.38
2022-10-18T15:17:07.411Z,99544.19
2022-10-18T15:19:36.434Z,99544.94
2022-10-18T15:22:30.958Z,99552.41
2022-10-18T15:25:14.719Z,99557.16
2022-10-18T15:27:45.118Z,99553.84
2022-10-18T15:30:22.733Z,99556.25
2022-10-18T15:33:01.339Z,99546.94
2022-10-18T15:35:31.505Z,99547.19
2022-10-18T15:38:13.537Z,99549.06
2022-10-18T15:40:41.205Z,99542.94
2022-10-18T15:43:23.095Z,99550.19
2022-10-18T15:46:29.019Z,99544.84
2022-10-18T15:49:18.451Z,99546.03
2022-10-18T15:51:49.266Z,99550.13
2022-10-18T15:54:19.467Z,99548.66
2022-10-18T15:56:46.234Z,99539.47
2022-10-18T15:59:25.255Z,99542.22
2022-10-18T16:01:51.884Z,99542.41
2022-10-18T16:04:30.004Z,99551.34
2022-10-18T16:06:57.968Z,99548.81
2022-10-18T16:09:27.295Z,99552.72
2022-10-18T16:11:57.276Z,99549.22
2022-10-18T16:14:27.238Z,99544.00
2022-10-18T16:17:02.325Z,99552.09
2022-10-18T16:19:29.209Z,99548.72
2022-10-18T16:21:55.772Z,99554.31
2022-10-18T16:24:22.856Z,99553.44
2022-10-18T16:26:50.039Z,99557.38
2022-10-18T16:29:22.403Z,99558.88
2022-10-18T16:31:50.753Z,99563.75
2022-10-18T16:34:18.133Z,99558.81
2022-10-18T16:36:45.187Z,99556.59
2022-10-18T16:39:19.648Z,99570.56
2022-10-18T16:41:46.967Z,99572.38
2022-10-18T16:44:14.166Z,99567.31
2022-10-18T16:46:41.159Z,99579.38
2022-10-18T16:49:07.688Z,99572.81
2022-10-18T16:51:34.138Z,99579.34
2022-10-18T16:54:00.615Z,99574.97
2022-10-18T16:56:33.270Z,99581.88
2022-10-18T16:59:00.289Z,99580.97
2022-10-18T17:01:26.972Z,99594.53
2022-10-18T17:03:54.142Z,99596.16
2022-10-18T17:06:24.802Z,99602.53
2022-10-18T17:08:52.177Z,99601.44
2022-10-18T17:11:20.968Z,99606.34
2022-10-18T17:13:47.514Z,99609.59
2022-10-18T17:19:02.980Z,99615.69
2022-10-18T17:21:30.630Z,99619.09
2022-10-18T17:24:04.399Z,99622.03
2022-10-18T17:26:31.423Z,99619.50
2022-10-18T17:29:01.084Z,99614.97
2022-10-18T17:31:28.866Z,99622.88
2022-10-18T17:33:55.494Z,99619.84
2022-10-18T17:36:22.491Z,99625.09
2022-10-18T17:38:52.479Z,99623.72
2022-10-18T17:41:19.233Z,99622.94
2022-10-18T17:43:45.784Z,99617.13
2022-10-18T17:46:14.137Z,99623.81
2022-10-18T17:48:41.706Z,99621.97
2022-10-18T17:51:10.174Z,99632.00
2022-10-18T17:53:36.885Z,99630.88
2022-10-18T17:56:04.470Z,99627.72
2022-10-18T17:58:31.372Z,99629.38
2022-10-18T18:00:59.649Z,99630.50
2022-10-18T18:03:26.131Z,99626.88
2022-10-18T18:05:52.527Z,99633.91
2022-10-18T18:08:18.888Z,99628.16
2022-10-18T18:10:45.337Z,99634.84
2022-10-18T18:13:15.021Z,99637.56
2022-10-18T18:15:44.011Z,99635.06
2022-10-18T18:18:10.403Z,99625.91
2022-10-18T18:20:36.816Z,99625.09
2022-10-18T18:23:03.249Z,99620.31
2022-10-18T18:25:29.709Z,99618.38
2022-10-18T18:27:56.126Z,99618.41
2022-10-18T18:30:23.066Z,99622.38
2022-10-18T18:32:49.500Z,99624.38
2022-10-18T18:35:16.046Z,99624.66
2022-10-18T18:37:42.525Z,99622.81
2022-10-18T18:40:09.417Z,99621.72
2022-10-18T18:42:36.072Z,99622.56
2022-10-18T18:45:02.992Z,99620.31
2022-10-18T18:47:29.442Z,99632.59
2022-10-18T18:49:55.821Z,99628.66
2022-10-18T18:52:22.197Z,99630.38
2022-10-18T18:54:48.676Z,99626.81
2022-10-18T18:57:15.092Z,99631.63
2022-10-18T18:59:41.481Z,99634.06
2022-10-18T19:02:09.721Z,99635.63
2022-10-18T19:04:36.461Z,99633.47
2022-10-18T19:07:02.928Z,99642.78
2022-10-18T19:09:29.360Z,99637.97
2022-10-18T19:11:56.544Z,99639.94
2022-10-18T19:14:24.778Z,99637.09
2022-10-18T19:16:58.718Z,99644.03
2022-10-18T19:19:27.578Z,99634.84
2022-10-18T19:21:56.888Z,99639.81
2022-10-18T19:24:25.348Z,99629.22
2022-10-18T19:26:54.706Z,99635.69
2022-10-18T19:29:27.757Z,99628.66
2022-10-18T19:31:56.554Z,99633.06
2022-10-18T19:34:24.573Z,99632.06
2022-10-18T19:36:51.845Z,99640.53
2022-10-18T19:39:19.604Z,99639.06
2022-10-18T19:41:51.604Z,99644.44
2022-10-18T19:44:19.333Z,99645.16
2022-10-18T19:46:46.469Z,99641.22
2022-10-18T19:49:12.933Z,99646.44
2022-10-18T19:51:39.350Z,99643.88
2022-10-18T19:54:05.861Z,99641.38
2022-10-18T19:56:32.304Z,99642.50
2022-10-18T19:58:59.625Z,99645.75
2022-10-18T20:01:27.670Z,99647.72
2022-10-18T20:03:54.468Z,99644.50
2022-10-18T20:06:21.248Z,99645.59
2022-10-18T20:08:48.215Z,99642.34
2022-10-18T20:11:18.092Z,99647.25
2022-10-18T20:13:44.538Z,99645.72
2022-10-18T20:16:13.166Z,99638.53
2022-10-18T20:18:40.092Z,99644.75
2022-10-18T20:21:11.247Z,99645.00
2022-10-18T20:23:40.164Z,99647.66
2022-10-18T20:26:18.119Z,99649.22
2022-10-18T20:28:49.086Z,99640.63
2022-10-18T20:31:18.037Z,99643.19
2022-10-18T20:33:45.786Z,99649.50
2022-10-18T20:36:18.159Z,99653.91
2022-10-18T20:38:46.623Z,99654.59
2022-10-18T20:41:16.366Z,99654.59
2022-10-18T20:43:43.766Z,99655.00
2022-10-18T20:46:11.057Z,99653.59
2022-10-18T20:48:38.693Z,99657.41
2022-10-18T20:51:07.982Z,99653.59
2022-10-18T20:53:38.474Z,99659.94
2022-10-18T20:56:09.822Z,99653.59
2022-10-18T20:58:38.456Z,99655.03
2022-10-18T21:01:16.574Z,99662.75
2022-10-18T21:03:44.925Z,99669.81
2022-10-18T21:06:16.860Z,99665.44
2022-10-18T21:08:44.000Z,99671.94
2022-10-18T21:11:11.552Z,99672.38
2022-10-18T21:13:38.605Z,99665.47
2022-10-18T21:16:05.790Z,99673.66
2022-10-18T21:18:34.479Z,99672.78
2022-10-18T21:21:28.475Z,99672.78
2022-10-18T21:23:54.968Z,99669.81
2022-10-18T21:26:24.343Z,99666.75
2022-10-18T21:28:52.892Z,99674.47
2022-10-18T21:31:22.046Z,99674.22
2022-10-18T21:33:55.788Z,99662.78
2022-10-18T21:36:23.382Z,99665.16
2022-10-18T21:38:50.303Z,99663.19
2022-10-18T21:41:18.428Z,99659.41
2022-10-18T21:43:48.930Z,99659.25
2022-10-18T21:46:17.151Z,99651.50
2022-10-18T21:48:45.774Z,99650.94
2022-10-18T21:51:14.249Z,99652.63
2022-10-18T21:53:45.531Z,99646.72
2022-10-18T21:56:18.213Z,99652.06
2022-10-18T21:58:45.634Z,99656.03
2022-10-18T22:01:18.055Z,99657.84
2022-10-18T22:03:45.344Z,99650.66
2022-10-18T22:06:14.663Z,99647.69
2022-10-18T22:08:42.959Z,99651.50
2022-10-18T22:11:09.932Z,99646.44
2022-10-18T22:13:36.376Z,99643.31
2022-10-18T22:16:05.670Z,99644.31
2022-10-18T22:18:32.912Z,99641.88
2022-10-18T22:21:02.192Z,99647.69
2022-10-18T22:23:33.580Z,99639.78
2022-10-18T22:26:15.439Z,99637.81
2022-10-18T22:28:43.781Z,99632.63
2022-10-18T22:31:18.406Z,99640.09
2022-10-18T22:33:45.366Z,99642.34
2022-10-18T22:36:12.750Z,99633.75
2022-10-18T22:38:39.706Z,99629.09
2022-10-18T22:41:08.231Z,99633.16
2022-10-18T22:43:38.094Z,99632.22
2022-10-18T22:46:07.026Z,99634.31
2022-10-18T22:48:36.673Z,99630.63
2022-10-18T22:51:03.905Z,99636.28
2022-10-18T22:53:31.261Z,99624.75
2022-10-18T22:55:57.825Z,99630.06
2022-10-18T22:58:26.353Z,99632.03
2022-10-18T23:01:09.969Z,99623.13
2022-10-18T23:03:37.146Z,99631.97
2022-10-18T23:06:04.628Z,99631.91
2022-10-18T23:08:32.105Z,99632.00
2022-10-18T23:10:59.853Z,99637.13
2022-10-18T23:13:27.441Z,99641.00
2022-10-18T23:16:04.538Z,99642.22
2022-10-18T23:18:32.314Z,99640.53
2022-10-18T23:21:07.371Z,99636.75
2022-10-18T23:23:35.758Z,99642.63
2022-10-18T23:26:04.333Z,99639.13
2022-10-18T23:28:33.727Z,99630.28
2022-10-18T23:31:05.467Z,99635.53
2022-10-18T23:33:31.911Z,99638.66
2022-10-18T23:36:01.689Z,99638.66
2022-10-18T23:38:32.546Z,99631.41
2022-10-18T23:40:59.008Z,99641.94
2022-10-18T23:43:25.612Z,99634.72
2022-10-18T23:45:53.966Z,99638.75
2022-10-18T23:48:20.371Z,99636.78
2022-10-18T23:50:46.830Z,99636.66
2022-10-18T23:53:13.433Z,99640.34
2022-10-18T23:55:39.779Z,99641.34
2022-10-18T23:58:06.221Z,99638.34
